createdAt,value
2018-06-22T00:01:37.207Z,98356.53
2018-06-22T00:04:05.831Z,98348.88
2018-06-22T00:06:34.564Z,98357.02
2018-06-22T00:09:03.262Z,98359.29
2018-06-22T00:11:31.744Z,98357.70
2018-06-22T00:14:00.208Z,98364.56
2018-06-22T00:16:28.652Z,98369.82
2018-06-22T00:18:57.155Z,98369.69
2018-06-22T00:21:25.669Z,98371.09
2018-06-22T00:23:54.165Z,98373.02
2018-06-22T00:26:22.716Z,98376.50
2018-06-22T00:28:51.709Z,98377.34
2018-06-22T00:31:20.239Z,98381.55
2018-06-22T00:33:48.783Z,98385.47
2018-06-22T00:36:17.316Z,98386.05
2018-06-22T00:38:45.752Z,98385.48
2018-06-22T00:41:14.155Z,98389.56
2018-06-22T00:43:42.609Z,98391.19
2018-06-22T00:46:11.226Z,98388.86
2018-06-22T00:48:39.768Z,98392.63
2018-06-22T00:51:08.157Z,98393.75
2018-06-22T00:53:47.734Z,98401.97
2018-06-22T00:56:16.231Z,98399.38
2018-06-22T00:58:44.776Z,98401.54
2018-06-22T01:01:13.290Z,98391.81
2018-06-22T01:03:41.834Z,98397.55
2018-06-22T01:06:10.544Z,98399.20
2018-06-22T01:08:38.998Z,98406.27
2018-06-22T01:11:07.614Z,98405.05
2018-06-22T01:13:36.094Z,98408.01
2018-06-22T01:16:04.934Z,98407.02
2018-06-22T01:18:33.471Z,98404.83
2018-06-22T01:21:01.916Z,98408.97
2018-06-22T01:23:30.314Z,98409.90
2018-06-22T01:25:58.754Z,98417.33
2018-06-22T01:28:27.703Z,98423.84
2018-06-22T01:30:56.177Z,98421.63
2018-06-22T01:33:24.696Z,98419.72
2018-06-22T01:35:53.759Z,98424.42
2018-06-22T01:38:22.221Z,98427.16
2018-06-22T01:40:50.720Z,98430.75
2018-06-22T01:43:20.128Z,98435.52
2018-06-22T01:45:48.637Z,98429.37
2018-06-22T01:48:17.160Z,98426.67
2018-06-22T01:50:45.660Z,98432.53
2018-06-22T01:53:14.148Z,98430.02
2018-06-22T01:55:48.972Z,98426.55
2018-06-22T01:58:17.540Z,98429.58
2018-06-22T02:00:46.014Z,98431.70
2018-06-22T02:03:14.480Z,98434.11
2018-06-22T02:05:42.938Z,98435.36
2018-06-22T02:08:11.460Z,98424.52
2018-06-22T02:10:40.003Z,98427.64
2018-06-22T02:13:08.514Z,98435.20
2018-06-22T02:15:37.046Z,98434.89
2018-06-22T02:18:05.678Z,98435.55
2018-06-22T02:20:34.387Z,98437.48
2018-06-22T02:23:02.865Z,98442.31
2018-06-22T02:25:31.365Z,98437.84
2018-06-22T02:28:00.422Z,98435.48
2018-06-22T02:30:28.885Z,98443.16
2018-06-22T02:32:57.414Z,98439.98
2018-06-22T02:35:26.648Z,98436.99
2018-06-22T02:37:55.109Z,98450.45
2018-06-22T02:40:23.542Z,98440.45
2018-06-22T02:42:52.004Z,98440.53
2018-06-22T02:45:20.503Z,98444.77
2018-06-22T02:47:49.725Z,98442.67
2018-06-22T02:50:18.111Z,98441.48
2018-06-22T02:52:46.659Z,98447.74
2018-06-22T02:55:15.089Z,98450.08
2018-06-22T02:57:43.855Z,98446.52
2018-06-22T03:00:12.368Z,98446.52
2018-06-22T03:02:40.929Z,98449.77
2018-06-22T03:05:09.824Z,98451.23
2018-06-22T03:07:38.380Z,98456.66
2018-06-22T03:10:07.279Z,98459.35
2018-06-22T03:12:35.871Z,98463.89
2018-06-22T03:15:04.758Z,98468.23
2018-06-22T03:17:33.189Z,98469.70
2018-06-22T03:20:01.626Z,98473.97
2018-06-22T03:22:30.154Z,98468.67
2018-06-22T03:24:58.633Z,98463.38
2018-06-22T03:27:27.058Z,98459.79
2018-06-22T03:29:55.668Z,98465.95
2018-06-22T03:32:24.093Z,98460.03
2018-06-22T03:34:52.594Z,98459.90
2018-06-22T03:37:21.395Z,98464.27
2018-06-22T03:39:49.824Z,98462.59
2018-06-22T03:42:18.274Z,98467.95
2018-06-22T03:44:46.747Z,98470.20
2018-06-22T03:47:15.210Z,98467.45
2018-06-22T03:49:43.648Z,98464.52
2018-06-22T03:52:12.289Z,98463.89
2018-06-22T03:54:40.729Z,98470.39
2018-06-22T03:57:09.214Z,98473.81
2018-06-22T03:59:38.101Z,98474.04
2018-06-22T04:02:07.363Z,98475.81
2018-06-22T04:04:35.837Z,98476.61
2018-06-22T04:07:04.591Z,98466.36
2018-06-22T04:09:33.129Z,98475.13
2018-06-22T04:12:02.931Z,98477.93
2018-06-22T04:14:31.479Z,98482.86
2018-06-22T04:17:00.014Z,98476.16
2018-06-22T04:19:28.555Z,98482.55
2018-06-22T04:21:57.050Z,98484.47
2018-06-22T04:24:25.523Z,98485.46
2018-06-22T04:26:54.510Z,98483.85
2018-06-22T04:29:22.963Z,98482.46
2018-06-22T04:31:51.470Z,98486.84
2018-06-22T04:34:20.651Z,98487.66
2018-06-22T04:36:49.181Z,98483.55
2018-06-22T04:39:18.816Z,98482.89
2018-06-22T04:41:47.410Z,98490.53
2018-06-22T04:44:16.839Z,98485.05
2018-06-22T04:46:45.414Z,98489.71
2018-06-22T04:49:14.596Z,98487.05
2018-06-22T04:51:43.103Z,98491.11
2018-06-22T04:54:12.096Z,98485.52
2018-06-22T04:56:40.661Z,98494.15
2018-06-22T04:59:09.166Z,98497.98
2018-06-22T05:01:37.760Z,98496.30
2018-06-22T05:04:06.401Z,98497.45
2018-06-22T05:06:34.858Z,98493.88
2018-06-22T05:09:03.565Z,98493.30
2018-06-22T05:11:31.989Z,98493.86
2018-06-22T05:14:00.639Z,98489.73
2018-06-22T05:16:29.077Z,98493.84
2018-06-22T05:18:57.833Z,98487.39
2018-06-22T05:21:26.259Z,98487.90
2018-06-22T05:23:54.771Z,98496.09
2018-06-22T05:26:23.722Z,98493.56
2018-06-22T05:28:52.218Z,98492.11
2018-06-22T05:31:20.700Z,98497.70
2018-06-22T05:33:49.297Z,98490.19
2018-06-22T05:36:17.722Z,98491.56
2018-06-22T05:38:46.169Z,98495.97
2018-06-22T05:41:14.897Z,98495.50
2018-06-22T05:43:43.381Z,98491.17
2018-06-22T05:46:12.460Z,98487.70
2018-06-22T05:48:40.919Z,98476.98
2018-06-22T05:51:09.349Z,98486.66
2018-06-22T05:53:38.026Z,98482.98
2018-06-22T05:56:06.500Z,98484.91
2018-06-22T05:58:35.072Z,98488.22
2018-06-22T06:01:03.579Z,98494.58
2018-06-22T06:03:32.180Z,98486.80
2018-06-22T06:06:00.750Z,98496.84
2018-06-22T06:08:29.206Z,98488.71
2018-06-22T06:10:57.770Z,98484.22
2018-06-22T06:13:26.252Z,98477.02
2018-06-22T06:15:54.750Z,98479.10
2018-06-22T06:18:23.212Z,98474.63
2018-06-22T06:20:51.709Z,98478.56
2018-06-22T06:23:20.159Z,98482.96
2018-06-22T06:25:49.280Z,98484.40
2018-06-22T06:28:17.692Z,98479.59
2018-06-22T06:30:46.214Z,98465.34
2018-06-22T06:33:14.668Z,98479.94
2018-06-22T06:35:43.146Z,98470.13
2018-06-22T06:38:11.602Z,98473.80
2018-06-22T06:40:40.096Z,98479.36
2018-06-22T06:43:08.613Z,98488.89
2018-06-22T06:45:37.121Z,98493.80
2018-06-22T06:48:05.648Z,98494.02
2018-06-22T06:50:34.204Z,98496.20
2018-06-22T06:53:02.743Z,98494.86
2018-06-22T06:55:31.499Z,98498.87
2018-06-22T06:58:00.045Z,98488.47
2018-06-22T07:00:28.574Z,98489.83
2018-06-22T07:02:57.093Z,98498.58
2018-06-22T07:05:25.593Z,98495.75
2018-06-22T07:07:54.423Z,98494.13
2018-06-22T07:10:22.896Z,98506.34
2018-06-22T07:12:51.322Z,98509.69
2018-06-22T07:15:19.849Z,98509.41
2018-06-22T07:17:48.376Z,98501.73
2018-06-22T07:20:17.000Z,98511.11
2018-06-22T07:22:45.622Z,98494.28
2018-06-22T07:25:14.139Z,98488.27
2018-06-22T07:27:42.640Z,98488.18
2018-06-22T07:30:11.199Z,98488.68
2018-06-22T07:32:39.834Z,98485.80
2018-06-22T07:35:08.933Z,98493.22
2018-06-22T07:37:37.494Z,98505.03
2018-06-22T07:40:05.995Z,98501.87
2018-06-22T07:42:34.505Z,98500.63
2018-06-22T07:45:03.066Z,98505.20
2018-06-22T07:47:31.668Z,98509.22
2018-06-22T07:50:00.106Z,98510.30
2018-06-22T07:52:28.690Z,98506.86
2018-06-22T07:54:57.173Z,98513.06
2018-06-22T07:57:25.712Z,98519.64
2018-06-22T07:59:54.182Z,98529.41
2018-06-22T08:02:22.630Z,98533.95
2018-06-22T08:04:51.240Z,98534.50
2018-06-22T08:07:19.724Z,98539.36
2018-06-22T08:09:48.508Z,98535.30
2018-06-22T08:12:17.026Z,98526.87
2018-06-22T08:14:45.637Z,98530.22
2018-06-22T08:17:14.087Z,98519.91
2018-06-22T08:19:42.579Z,98522.98
2018-06-22T08:22:11.107Z,98535.56
2018-06-22T08:24:39.642Z,98527.20
2018-06-22T08:27:08.129Z,98523.27
2018-06-22T08:29:36.823Z,98514.75
2018-06-22T08:32:05.398Z,98514.34
2018-06-22T08:34:33.888Z,98506.77
2018-06-22T08:37:02.712Z,98493.63
2018-06-22T08:39:31.195Z,98498.31
2018-06-22T08:42:00.535Z,98499.69
2018-06-22T08:44:29.154Z,98496.42
2018-06-22T08:46:57.561Z,98501.20
2018-06-22T08:49:26.127Z,98499.73
2018-06-22T08:51:54.706Z,98498.05
2018-06-22T08:54:23.358Z,98504.30
2018-06-22T08:56:51.888Z,98503.61
2018-06-22T08:59:20.557Z,98502.19
2018-06-22T09:01:49.098Z,98501.72
2018-06-22T09:04:20.611Z,98516.77
2018-06-22T09:06:49.173Z,98512.92
2018-06-22T09:09:17.722Z,98505.80
2018-06-22T09:11:46.328Z,98515.13
2018-06-22T09:14:14.900Z,98511.52
2018-06-22T09:16:43.442Z,98517.81
2018-06-22T09:19:11.908Z,98521.02
2018-06-22T09:21:40.734Z,98512.80
2018-06-22T09:24:09.254Z,98508.13
2018-06-22T09:26:37.708Z,98506.19
2018-06-22T09:29:06.328Z,98508.83
2018-06-22T09:31:34.910Z,98517.34
2018-06-22T09:34:03.620Z,98516.84
2018-06-22T09:36:32.395Z,98507.56
2018-06-22T09:39:00.873Z,98507.89
2018-06-22T09:41:29.478Z,98504.67
2018-06-22T09:43:57.904Z,98505.16
2018-06-22T09:46:26.365Z,98510.77
2018-06-22T09:48:54.919Z,98514.77
2018-06-22T09:51:23.412Z,98518.22
2018-06-22T09:53:51.942Z,98512.60
2018-06-22T09:56:20.448Z,98514.98
2018-06-22T09:58:48.928Z,98511.97
2018-06-22T10:01:17.538Z,98505.53
2018-06-22T10:03:46.020Z,98503.59
2018-06-22T10:06:14.604Z,98487.68
2018-06-22T10:08:43.255Z,98479.91
2018-06-22T10:11:11.835Z,98478.49
2018-06-22T10:13:40.404Z,98473.50
2018-06-22T10:16:09.017Z,98476.48
2018-06-22T10:18:37.624Z,98477.80
2018-06-22T10:21:06.147Z,98480.28
2018-06-22T10:23:34.649Z,98486.38
2018-06-22T10:26:03.230Z,98488.70
2018-06-22T10:28:31.800Z,98502.16
2018-06-22T10:31:00.291Z,98489.50
2018-06-22T10:33:28.849Z,98495.91
2018-06-22T10:35:57.312Z,98500.86
2018-06-22T10:38:25.761Z,98499.27
2018-06-22T10:40:54.432Z,98505.30
2018-06-22T10:43:22.938Z,98508.44
2018-06-22T10:45:52.053Z,98514.55
2018-06-22T10:48:20.585Z,98508.73
2018-06-22T10:50:49.061Z,98505.38
2018-06-22T10:53:17.776Z,98510.14
2018-06-22T10:55:46.199Z,98507.77
2018-06-22T10:58:14.686Z,98505.48
2018-06-22T11:00:43.200Z,98507.68
2018-06-22T11:03:11.785Z,98504.03
2018-06-22T11:05:40.322Z,98507.52
2018-06-22T11:08:08.776Z,98501.34
2018-06-22T11:10:37.414Z,98502.28
2018-06-22T11:13:05.995Z,98497.85
2018-06-22T11:15:34.665Z,98507.20
2018-06-22T11:18:03.160Z,98504.37
2018-06-22T11:20:31.644Z,98492.73
2018-06-22T11:23:00.205Z,98502.83
2018-06-22T11:25:28.706Z,98507.42
2018-06-22T11:27:57.212Z,98504.05
2018-06-22T11:30:25.896Z,98510.42
2018-06-22T11:32:54.397Z,98506.73
2018-06-22T11:35:23.061Z,98509.63
2018-06-22T11:37:51.656Z,98514.95
2018-06-22T11:40:20.282Z,98508.50
2018-06-22T11:42:48.779Z,98505.32
2018-06-22T11:45:17.273Z,98503.47
2018-06-22T11:47:46.829Z,98509.27
2018-06-22T11:50:15.392Z,98497.96
2018-06-22T11:52:43.881Z,98495.45
2018-06-22T11:55:12.259Z,98503.48
2018-06-22T11:57:40.802Z,98504.56
2018-06-22T12:00:09.394Z,98495.23
2018-06-22T12:02:37.944Z,98502.97
2018-06-22T12:05:06.483Z,98500.99
2018-06-22T12:07:34.984Z,98495.06
2018-06-22T12:10:03.700Z,98496.47
2018-06-22T12:12:32.266Z,98505.50
2018-06-22T12:15:00.896Z,98502.17
2018-06-22T12:17:29.458Z,98504.09
2018-06-22T12:19:58.068Z,98500.77
2018-06-22T12:22:27.287Z,98501.13
2018-06-22T12:24:55.809Z,98507.95
2018-06-22T12:27:24.460Z,98500.09
2018-06-22T12:29:52.991Z,98492.48
2018-06-22T12:32:21.518Z,98492.00
2018-06-22T12:34:50.600Z,98501.55
2018-06-22T12:37:19.111Z,98487.45
2018-06-22T12:39:47.554Z,98492.44
2018-06-22T12:42:16.174Z,98487.88
2018-06-22T12:44:45.000Z,98491.87
2018-06-22T12:47:13.632Z,98496.91
2018-06-22T12:49:42.856Z,98501.31
2018-06-22T12:52:11.342Z,98500.17
2018-06-22T12:54:39.896Z,98503.06
2018-06-22T12:57:08.418Z,98498.24
2018-06-22T12:59:37.177Z,98499.38
2018-06-22T13:02:05.829Z,98501.92
2018-06-22T13:04:34.336Z,98491.07
2018-06-22T13:07:02.850Z,98492.13
2018-06-22T13:09:31.439Z,98496.94
2018-06-22T13:12:00.629Z,98506.05
2018-06-22T13:14:29.189Z,98502.86
2018-06-22T13:16:58.181Z,98504.00
2018-06-22T13:19:26.683Z,98501.73
2018-06-22T13:21:56.106Z,98507.68
2018-06-22T13:24:25.700Z,98511.72
2018-06-22T13:26:54.569Z,98499.63
2018-06-22T13:29:23.459Z,98491.13
2018-06-22T13:31:51.910Z,98491.14
2018-06-22T13:34:20.435Z,98489.61
2018-06-22T13:36:49.147Z,98485.26
2018-06-22T13:39:19.073Z,98489.35
2018-06-22T13:41:48.634Z,98497.85
2018-06-22T13:44:17.863Z,98504.48
2018-06-22T13:46:46.505Z,98505.36
2018-06-22T13:49:14.982Z,98499.38
2018-06-22T13:51:43.614Z,98502.61
2018-06-22T13:54:12.149Z,98501.10
2018-06-22T13:56:41.050Z,98503.28
2018-06-22T13:59:09.614Z,98494.36
2018-06-22T14:01:38.672Z,98509.82
2018-06-22T14:05:10.254Z,98507.64
2018-06-22T14:07:38.770Z,98502.49
2018-06-22T14:10:07.364Z,98509.33
2018-06-22T14:12:35.870Z,98512.70
2018-06-22T14:15:04.438Z,98517.95
2018-06-22T14:17:33.086Z,98517.30
2018-06-22T14:20:01.679Z,98523.98
2018-06-22T14:22:30.277Z,98524.81
2018-06-22T14:24:58.747Z,98525.05
2018-06-22T14:27:28.023Z,98523.45
2018-06-22T14:29:56.556Z,98524.41
2018-06-22T14:32:25.128Z,98525.21
2018-06-22T14:34:53.826Z,98527.75
2018-06-22T14:37:22.357Z,98525.93
2018-06-22T14:39:51.000Z,98520.80
2018-06-22T14:42:19.489Z,98527.03
2018-06-22T14:44:47.985Z,98524.32
2018-06-22T14:47:16.654Z,98518.13
2018-06-22T14:49:46.836Z,98514.30
2018-06-22T14:52:15.459Z,98508.69
2018-06-22T14:54:49.316Z,98493.30
2018-06-22T14:57:23.340Z,98514.70
2018-06-22T14:59:56.985Z,98520.41
2018-06-22T15:02:30.932Z,98516.59
2018-06-22T15:05:04.747Z,98520.73
2018-06-22T15:07:39.620Z,98522.86
2018-06-22T15:10:09.581Z,98516.69
2018-06-22T15:12:43.777Z,98516.14
2018-06-22T15:15:15.814Z,98517.74
2018-06-22T15:17:52.824Z,98515.84
2018-06-22T15:20:29.265Z,98519.42
2018-06-22T15:23:00.962Z,98507.41
2018-06-22T15:25:32.760Z,98512.87
2018-06-22T15:28:03.799Z,98517.06
2018-06-22T15:30:33.975Z,98524.94
2018-06-22T15:33:06.232Z,98514.77
2018-06-22T15:35:41.834Z,98518.69
2018-06-22T15:38:16.468Z,98514.33
2018-06-22T15:40:51.533Z,98513.35
2018-06-22T15:43:26.289Z,98511.31
2018-06-22T15:46:01.201Z,98518.89
2018-06-22T15:48:35.740Z,98510.42
2018-06-22T15:51:09.557Z,98513.12
2018-06-22T15:53:43.200Z,98511.30
2018-06-22T15:56:11.772Z,98515.86
2018-06-22T15:58:40.421Z,98505.73
2018-06-22T16:01:09.010Z,98504.48
2018-06-22T16:03:42.735Z,98507.01
2018-06-22T16:06:11.221Z,98500.34
2018-06-22T16:08:39.808Z,98494.41
2018-06-22T16:11:08.530Z,98506.12
2018-06-22T16:13:37.217Z,98507.51
2018-06-22T16:16:11.085Z,98509.65
2018-06-22T16:18:44.822Z,98514.63
2018-06-22T16:21:18.641Z,98516.38
2018-06-22T16:23:52.629Z,98519.55
2018-06-22T16:26:26.452Z,98524.33
2018-06-22T16:28:55.002Z,98521.08
2018-06-22T16:31:23.510Z,98523.17
2018-06-22T16:33:55.950Z,98525.46
2018-06-22T16:36:25.493Z,98525.52
2018-06-22T16:38:54.367Z,98526.94
2018-06-22T16:41:23.026Z,98521.72
2018-06-22T16:43:51.554Z,98524.01
2018-06-22T16:46:20.135Z,98524.05
2018-06-22T16:48:48.657Z,98523.20
2018-06-22T16:51:17.249Z,98526.94
2018-06-22T16:53:45.749Z,98525.34
2018-06-22T16:56:14.285Z,98517.08
2018-06-22T16:58:42.738Z,98518.72
2018-06-22T17:01:12.152Z,98520.05
2018-06-22T17:03:40.668Z,98511.14
2018-06-22T17:06:09.296Z,98514.50
2018-06-22T17:08:42.857Z,98523.89
2018-06-22T17:11:16.405Z,98520.70
2018-06-22T17:13:50.073Z,98523.67
2018-06-22T17:16:24.128Z,98522.13
2018-06-22T17:18:55.403Z,98526.95
2018-06-22T17:21:24.011Z,98524.06
2018-06-22T17:23:52.847Z,98526.13
2018-06-22T17:26:21.282Z,98523.34
2018-06-22T17:28:49.847Z,98520.63
2018-06-22T17:31:18.474Z,98528.45
2018-06-22T17:33:47.078Z,98532.37
2018-06-22T17:36:15.739Z,98537.33
2018-06-22T17:38:44.316Z,98539.23
2018-06-22T17:41:13.410Z,98543.95
2018-06-22T17:43:41.927Z,98554.27
2018-06-22T17:46:10.762Z,98525.95
2018-06-22T17:48:39.278Z,98545.48
2018-06-22T17:51:07.756Z,98543.25
2018-06-22T17:53:36.406Z,98539.00
2018-06-22T17:56:05.030Z,98538.14
2018-06-22T17:58:34.539Z,98542.47
2018-06-22T18:01:08.360Z,98543.52
2018-06-22T18:03:42.167Z,98537.66
2018-06-22T18:06:16.056Z,98544.47
2018-06-22T18:08:46.860Z,98542.32
2018-06-22T18:11:20.657Z,98546.09
2018-06-22T18:13:49.151Z,98545.14
2018-06-22T18:16:17.616Z,98542.79
2018-06-22T18:18:46.192Z,98541.84
2018-06-22T18:21:14.682Z,98541.19
2018-06-22T18:23:43.565Z,98543.20
2018-06-22T18:26:12.087Z,98544.80
2018-06-22T18:28:40.575Z,98546.56
2018-06-22T18:31:09.297Z,98544.47
2018-06-22T18:33:37.807Z,98544.02
2018-06-22T18:36:06.495Z,98539.44
2018-06-22T18:38:35.040Z,98542.56
2018-06-22T18:41:03.662Z,98543.19
2018-06-22T18:43:37.442Z,98544.81
2018-06-22T18:46:05.989Z,98553.86
2018-06-22T18:48:34.494Z,98551.66
2018-06-22T18:51:03.204Z,98549.25
2018-06-22T18:53:37.116Z,98553.27
2018-06-22T18:57:09.391Z,98558.92
2018-06-22T18:59:41.044Z,98561.23
2018-06-22T19:02:14.778Z,98559.92
2018-06-22T19:04:43.458Z,98559.61
2018-06-22T19:07:12.070Z,98564.98
2018-06-22T19:09:40.647Z,98561.27
2018-06-22T19:12:09.238Z,98563.34
2018-06-22T19:14:37.708Z,98571.05
2018-06-22T19:17:06.607Z,98564.56
2018-06-22T19:19:35.194Z,98571.13
2018-06-22T19:22:03.698Z,98573.80
2018-06-22T19:24:32.368Z,98573.51
2018-06-22T19:27:00.873Z,98575.17
2018-06-22T19:29:29.587Z,98525.50
2018-06-22T19:31:58.190Z,98575.04
2018-06-22T19:34:31.994Z,98574.23
2018-06-22T19:37:00.619Z,98584.13
2018-06-22T19:39:29.193Z,98586.14
2018-06-22T19:44:57.606Z,98588.48
2018-06-22T19:47:31.352Z,98593.13
2018-06-22T19:50:05.093Z,98594.69
2018-06-22T19:52:39.075Z,98593.70
2018-06-22T19:55:07.743Z,98595.98
2018-06-22T19:57:36.376Z,98599.70
2018-06-22T20:00:09.137Z,98599.81
2018-06-22T20:02:37.688Z,98600.70
2018-06-22T20:05:06.836Z,98569.23
2018-06-22T20:07:35.491Z,98611.38
2018-06-22T20:10:04.852Z,98613.85
2018-06-22T20:12:33.385Z,98605.25
2018-06-22T20:15:01.851Z,98612.68
2018-06-22T20:17:30.460Z,98612.23
2018-06-22T20:19:59.001Z,98614.89
2018-06-22T20:22:27.530Z,98617.44
2018-06-22T20:25:01.504Z,98618.62
2018-06-22T20:27:30.072Z,98626.41
2018-06-22T20:29:58.534Z,98627.26
2018-06-22T20:32:27.093Z,98630.48
2018-06-22T20:35:00.754Z,98631.63
2018-06-22T20:37:34.463Z,98632.99
2018-06-22T20:40:08.365Z,98634.53
2018-06-22T20:42:42.159Z,98629.10
2018-06-22T20:45:15.993Z,98633.23
2018-06-22T20:47:49.894Z,98638.15
2018-06-22T20:50:23.717Z,98640.85
2018-06-22T20:52:52.231Z,98643.02
2018-06-22T20:55:20.776Z,98639.20
2018-06-22T20:57:49.281Z,98647.63
2018-06-22T21:00:18.052Z,98646.58
2018-06-22T21:02:46.595Z,98647.68
2018-06-22T21:05:15.082Z,98656.67
2018-06-22T21:07:43.575Z,98651.55
2018-06-22T21:10:12.741Z,98659.73
2018-06-22T21:12:41.565Z,98659.68
2018-06-22T21:15:10.718Z,98658.25
2018-06-22T21:17:39.242Z,98662.73
2018-06-22T21:20:07.734Z,98660.89
2018-06-22T21:22:36.287Z,98658.58
2018-06-22T21:25:04.864Z,98658.07
2018-06-22T21:27:38.533Z,98656.91
2018-06-22T21:30:13.907Z,98658.18
2018-06-22T21:32:54.416Z,98657.92
2018-06-22T21:35:28.206Z,98662.20
2018-06-22T21:38:01.906Z,98658.98
2018-06-22T21:40:30.472Z,98658.70
2018-06-22T21:42:59.021Z,98655.66
2018-06-22T21:45:27.627Z,98653.32
2018-06-22T21:47:56.283Z,98659.98
2018-06-22T21:50:24.872Z,98662.22
2018-06-22T21:52:53.371Z,98663.68
2018-06-22T21:55:21.911Z,98669.34
2018-06-22T21:57:50.508Z,98661.98
2018-06-22T22:00:30.719Z,98656.89
2018-06-22T22:03:00.367Z,98654.58
2018-06-22T22:05:29.600Z,98653.52
2018-06-22T22:07:58.737Z,98652.64
2018-06-22T22:10:32.618Z,98653.47
2018-06-22T22:13:01.233Z,98649.45
2018-06-22T22:15:30.090Z,98648.91
2018-06-22T22:17:59.332Z,98649.94
2018-06-22T22:20:28.005Z,98656.28
2018-06-22T22:22:56.581Z,98653.79
2018-06-22T22:25:25.134Z,98656.66
2018-06-22T22:27:59.045Z,98662.37
2018-06-22T22:30:29.182Z,98664.44
2018-06-22T22:32:57.723Z,98665.45
2018-06-22T22:35:26.685Z,98659.39
2018-06-22T22:37:55.230Z,98661.80
2018-06-22T22:40:24.393Z,98657.59
2018-06-22T22:42:53.548Z,98659.00
2018-06-22T22:45:22.154Z,98662.88
2018-06-22T22:47:50.778Z,98660.84
2018-06-22T22:50:19.492Z,98651.87
2018-06-22T22:52:48.155Z,98649.53
2018-06-22T22:55:17.390Z,98654.11
2018-06-22T22:57:49.655Z,98650.58
2018-06-22T23:00:18.306Z,98653.66
2018-06-22T23:02:46.982Z,98650.80
2018-06-22T23:05:15.480Z,98641.70
2018-06-22T23:07:44.185Z,98654.42
2018-06-22T23:10:12.689Z,98649.30
2018-06-22T23:12:41.555Z,98650.70
2018-06-22T23:15:11.432Z,98648.86
2018-06-22T23:17:40.063Z,98646.98
2018-06-22T23:20:09.238Z,98645.37
2018-06-22T23:22:48.854Z,98653.98
2018-06-22T23:25:17.314Z,98647.84
2018-06-22T23:27:45.909Z,98644.70
2018-06-22T23:30:14.505Z,98644.37
2018-06-22T23:32:43.139Z,98640.27
2018-06-22T23:35:12.351Z,98637.44
2018-06-22T23:37:40.926Z,98634.34
2018-06-22T23:40:10.242Z,98632.77
2018-06-22T23:42:38.925Z,98636.00
2018-06-22T23:45:07.481Z,98631.73
2018-06-22T23:47:36.008Z,98633.12
2018-06-22T23:50:04.531Z,98634.23
2018-06-22T23:52:33.009Z,98634.00
2018-06-22T23:55:01.608Z,98629.91
2018-06-22T23:57:30.052Z,98626.12
2018-06-22T23:59:59.149Z,98623.73
